Time;durP1;ratioP1;P1;durP2;ratioP2;P2;SDS_P1;SDS_P2;PMS_P1;PMS_P2;Temp;Humidity;BMP_temperature;BMP_pressure;BME280_temperature;BME280_humidity;BME280_pressure;Samples;Min_cycle;Max_cycle;Signal;HPM_P1;HPM_P2
2021/03/10 00:00:48;;;;;;;20.37;18.37;;;;;;;;;;4988209;28;20450;-62
2021/03/10 00:03:14;;;;;;;20.63;18.50;;;;;;;;;;4992065;28;20486;-65
2021/03/10 00:05:41;;;;;;;18.50;16.70;;;;;;;;;;4992048;28;20506;-62
2021/03/10 00:08:07;;;;;;;18.63;16.73;;;;;;;;;;4987545;28;20465;-63
2021/03/10 00:10:35;;;;;;;20.97;18.30;;;;;;;;;;4992041;28;20451;-63
2021/03/10 00:13:02;;;;;;;19.70;17.87;;;;;;;;;;4991682;28;20455;-64
2021/03/10 00:15:28;;;;;;;19.43;17.60;;;;;;;;;;4996547;28;20465;-64
2021/03/10 00:17:55;;;;;;;20.50;18.47;;;;;;;;;;4993957;28;20497;-63
2021/03/10 00:20:22;;;;;;;19.30;17.40;;;;;;;;;;4991585;28;20450;-64
2021/03/10 00:22:49;;;;;;;19.43;17.50;;;;;;;;;;4991193;28;20882;-64
2021/03/10 00:25:15;;;;;;;20.30;18.17;;;;;;;;;;4991290;28;20509;-63
2021/03/10 00:27:43;;;;;;;21.30;18.70;;;;;;;;;;4990190;28;20981;-64
2021/03/10 00:30:10;;;;;;;19.40;17.60;;;;;;;;;;4990975;28;20481;-64
2021/03/10 00:32:38;;;;;;;19.90;17.90;;;;;;;;;;4987726;28;20832;-63
2021/03/10 00:35:05;;;;;;;18.40;16.70;;;;;;;;;;4995182;28;20482;-63
2021/03/10 00:37:31;;;;;;;19.23;17.20;;;;;;;;;;4994320;28;20529;-64
2021/03/10 00:39:58;;;;;;;20.13;18.03;;;;;;;;;;4992233;28;20490;-64
2021/03/10 00:42:25;;;;;;;19.63;17.60;;;;;;;;;;4992277;28;21041;-64
2021/03/10 00:44:52;;;;;;;19.10;17.20;;;;;;;;;;4995170;28;20494;-64
2021/03/10 00:47:19;;;;;;;20.47;18.37;;;;;;;;;;4995248;28;20458;-64
2021/03/10 00:49:46;;;;;;;20.27;18.27;;;;;;;;;;4996284;28;20867;-63
2021/03/10 00:52:13;;;;;;;19.00;17.17;;;;;;;;;;4992989;28;20464;-64
2021/03/10 00:54:41;;;;;;;18.43;16.63;;;;;;;;;;4998689;28;20899;-64
2021/03/10 00:57:08;;;;;;;21.30;18.80;;;;;;;;;;4988045;28;20530;-64
2021/03/10 00:59:34;;;;;;;18.30;16.60;;;;;;;;;;4995362;28;20465;-64
2021/03/10 01:02:02;;;;;;;18.67;16.83;;;;;;;;;;4983736;28;20491;-64
2021/03/10 01:04:28;;;;;;;18.43;16.60;;;;;;;;;;4993283;28;21078;-64
2021/03/10 01:06:55;;;;;;;18.57;16.77;;;;;;;;;;4985774;28;20446;-64
2021/03/10 01:09:22;;;;;;;18.30;16.57;;;;;;;;;;4992608;28;20498;-64
2021/03/10 01:11:49;;;;;;;20.37;18.17;;;;;;;;;;4986274;28;20874;-64
2021/03/10 01:14:16;;;;;;;19.33;17.33;;;;;;;;;;4991273;28;21005;-64
2021/03/10 01:16:42;;;;;;;18.57;16.67;;;;;;;;;;4993815;28;20474;-64
2021/03/10 01:19:10;;;;;;;21.43;19.03;;;;;;;;;;4995504;28;20533;-64
2021/03/10 01:21:37;;;;;;;19.03;17.13;;;;;;;;;;4989301;28;20538;-64
2021/03/10 01:24:04;;;;;;;17.93;16.13;;;;;;;;;;4975972;28;20898;-64
2021/03/10 01:26:31;;;;;;;18.50;16.80;;;;;;;;;;4985293;28;20951;-63
2021/03/10 01:28:57;;;;;;;17.03;15.23;;;;;;;;;;4995059;28;20780;-64
2021/03/10 01:31:24;;;;;;;18.23;16.43;;;;;;;;;;4994520;28;20881;-64
2021/03/10 01:33:51;;;;;;;17.83;16.10;;;;;;;;;;4996337;28;21037;-63
2021/03/10 01:36:18;;;;;;;18.30;16.50;;;;;;;;;;4999735;23;20531;-62
2021/03/10 01:38:45;;;;;;;19.17;17.23;;;;;;;;;;4975077;28;20502;-62
2021/03/10 01:41:13;;;;;;;17.67;15.77;;;;;;;;;;4974477;28;20483;-63
2021/03/10 01:43:39;;;;;;;18.70;16.73;;;;;;;;;;4968576;28;20966;-62
2021/03/10 01:46:06;;;;;;;17.37;15.53;;;;;;;;;;4973993;28;20585;-62
2021/03/10 01:48:33;;;;;;;17.00;15.30;;;;;;;;;;4975253;28;21022;-63
2021/03/10 01:51:02;;;;;;;18.23;16.50;;;;;;;;;;4975307;28;20458;-63
2021/03/10 01:53:30;;;;;;;19.57;17.57;;;;;;;;;;4977551;28;20841;-63
2021/03/10 01:55:57;;;;;;;18.87;16.97;;;;;;;;;;4974116;28;20478;-63
2021/03/10 01:58:24;;;;;;;18.00;16.27;;;;;;;;;;4974964;28;20451;-62
2021/03/10 02:00:50;;;;;;;18.70;16.70;;;;;;;;;;4974583;28;20455;-62
2021/03/10 02:03:17;;;;;;;18.93;17.03;;;;;;;;;;4974468;28;20456;-62
2021/03/10 02:05:44;;;;;;;17.90;16.10;;;;;;;;;;4978882;28;20483;-62
2021/03/10 02:08:19;;;;;;;18.07;16.30;;;;;;;;;;4977455;28;20530;-62
2021/03/10 02:10:52;;;;;;;19.47;17.40;;;;;;;;;;4974466;28;20459;-62
2021/03/10 02:13:20;;;;;;;17.97;16.17;;;;;;;;;;4974634;28;21149;-62
2021/03/10 02:15:51;;;;;;;18.13;16.23;;;;;;;;;;4974500;28;20760;-62
2021/03/10 02:18:22;;;;;;;20.73;17.43;;;;;;;;;;4970069;28;20474;-62
2021/03/10 02:20:51;;;;;;;16.40;14.90;;;;;;;;;;4974110;28;20482;-62
2021/03/10 02:23:23;;;;;;;17.30;15.63;;;;;;;;;;4980858;28;20465;-62
2021/03/10 02:25:54;;;;;;;18.90;16.93;;;;;;;;;;4986572;28;20534;-62
2021/03/10 02:28:21;;;;;;;20.13;16.33;;;;;;;;;;4975793;28;21010;-63
2021/03/10 02:30:50;;;;;;;18.27;16.43;;;;;;;;;;4974086;28;20483;-62
2021/03/10 02:33:18;;;;;;;18.40;16.40;;;;;;;;;;4965244;28;20497;-62
2021/03/10 02:35:46;;;;;;;15.60;14.10;;;;;;;;;;4973735;28;20490;-62
2021/03/10 02:38:15;;;;;;;16.53;14.83;;;;;;;;;;4974507;28;20513;-62
2021/03/10 02:40:42;;;;;;;20.63;16.50;;;;;;;;;;4974044;28;20452;-62
2021/03/10 02:43:10;;;;;;;16.97;15.20;;;;;;;;;;4974267;28;20897;-62
2021/03/10 02:45:37;;;;;;;17.30;15.60;;;;;;;;;;4973992;28;20849;-62
2021/03/10 02:48:05;;;;;;;16.80;15.00;;;;;;;;;;4973593;28;20735;-62
2021/03/10 02:50:32;;;;;;;18.67;16.53;;;;;;;;;;4973876;28;20798;-62
2021/03/10 02:52:59;;;;;;;16.40;14.70;;;;;;;;;;4973652;28;20456;-62
2021/03/10 02:55:26;;;;;;;16.90;15.30;;;;;;;;;;4973788;28;20502;-62
2021/03/10 02:57:53;;;;;;;18.43;16.23;;;;;;;;;;4972187;28;20547;-62
2021/03/10 03:00:21;;;;;;;17.20;15.50;;;;;;;;;;4973127;28;20839;-61
2021/03/10 03:02:48;;;;;;;16.50;14.87;;;;;;;;;;4973875;28;20458;-62
2021/03/10 03:05:15;;;;;;;16.47;14.80;;;;;;;;;;4973179;28;20531;-62
2021/03/10 03:07:43;;;;;;;16.60;14.80;;;;;;;;;;4974071;28;20456;-63
2021/03/10 03:10:13;;;;;;;15.47;14.07;;;;;;;;;;4972972;28;20479;-62
2021/03/10 03:12:40;;;;;;;18.13;15.20;;;;;;;;;;4974158;28;20550;-62
2021/03/10 03:15:08;;;;;;;15.77;14.23;;;;;;;;;;4972871;28;20503;-62
2021/03/10 03:17:34;;;;;;;16.00;14.40;;;;;;;;;;4973288;28;20463;-61
2021/03/10 03:20:04;;;;;;;16.90;14.90;;;;;;;;;;4973022;28;20456;-62
2021/03/10 03:22:31;;;;;;;16.60;15.00;;;;;;;;;;4973384;28;20516;-62
2021/03/10 03:24:58;;;;;;;16.27;14.57;;;;;;;;;;4972957;28;20840;-62
2021/03/10 03:27:28;;;;;;;16.47;14.77;;;;;;;;;;4972395;28;20483;-62
2021/03/10 03:29:55;;;;;;;15.90;14.20;;;;;;;;;;4973253;28;20451;-62
2021/03/10 03:32:23;;;;;;;16.53;15.03;;;;;;;;;;4973110;28;20852;-62
2021/03/10 03:34:50;;;;;;;14.73;13.33;;;;;;;;;;4972538;28;20504;-62
2021/03/10 03:37:18;;;;;;;14.03;12.63;;;;;;;;;;4974760;28;20461;-62
2021/03/10 03:39:45;;;;;;;14.87;13.37;;;;;;;;;;4992741;28;20539;-62
2021/03/10 03:42:12;;;;;;;15.40;13.97;;;;;;;;;;4975674;28;20480;-62
2021/03/10 03:44:39;;;;;;;15.40;13.43;;;;;;;;;;4972895;28;20558;-63
2021/03/10 03:47:06;;;;;;;14.87;13.47;;;;;;;;;;4972376;28;20538;-64
2021/03/10 03:49:32;;;;;;;15.47;13.70;;;;;;;;;;4972950;28;20460;-61
2021/03/10 03:51:59;;;;;;;14.80;13.30;;;;;;;;;;4972624;28;20610;-63
2021/03/10 03:54:27;;;;;;;14.30;13.00;;;;;;;;;;4973132;28;20817;-63
2021/03/10 03:56:53;;;;;;;15.63;13.87;;;;;;;;;;4972456;28;20953;-62
2021/03/10 03:59:20;;;;;;;14.80;13.30;;;;;;;;;;4972457;28;20458;-63
2021/03/10 04:01:46;;;;;;;14.67;12.70;;;;;;;;;;4972981;28;20451;-64
2021/03/10 04:04:13;;;;;;;15.03;13.47;;;;;;;;;;4972674;28;20959;-65
2021/03/10 04:06:44;;;;;;;14.43;13.03;;;;;;;;;;4972754;28;20491;-64
2021/03/10 04:09:11;;;;;;;16.23;12.93;;;;;;;;;;4961203;28;20947;-64
2021/03/10 04:11:39;;;;;;;14.77;13.27;;;;;;;;;;4972781;28;20518;-64
2021/03/10 04:14:05;;;;;;;14.20;12.90;;;;;;;;;;4972349;28;20455;-64
2021/03/10 04:16:32;;;;;;;14.80;13.40;;;;;;;;;;4972587;28;20467;-64
2021/03/10 04:18:59;;;;;;;14.63;13.10;;;;;;;;;;4972869;28;20451;-64
2021/03/10 04:21:25;;;;;;;14.17;12.80;;;;;;;;;;4972623;28;20451;-64
2021/03/10 04:23:52;;;;;;;13.90;12.53;;;;;;;;;;4972294;28;20527;-64
2021/03/10 04:26:19;;;;;;;14.60;13.20;;;;;;;;;;4953337;28;20488;-64
2021/03/10 04:28:46;;;;;;;13.83;12.53;;;;;;;;;;4959384;28;20451;-65
2021/03/10 04:31:13;;;;;;;16.10;13.90;;;;;;;;;;4972559;28;20456;-64
2021/03/10 04:33:39;;;;;;;14.20;12.67;;;;;;;;;;4972073;28;20507;-65
2021/03/10 04:36:07;;;;;;;15.53;13.93;;;;;;;;;;4972090;28;20487;-65
2021/03/10 04:38:33;;;;;;;14.97;13.30;;;;;;;;;;4972417;28;20464;-64
2021/03/10 04:41:00;;;;;;;13.70;12.37;;;;;;;;;;4971986;28;20456;-64
2021/03/10 04:43:26;;;;;;;13.93;12.63;;;;;;;;;;4972610;28;20959;-64
2021/03/10 04:45:54;;;;;;;14.80;12.60;;;;;;;;;;4971765;28;20483;-63
2021/03/10 04:48:21;;;;;;;14.07;12.67;;;;;;;;;;4972836;28;20451;-64
2021/03/10 04:50:47;;;;;;;14.20;12.70;;;;;;;;;;4972329;28;20502;-63
2021/03/10 04:53:14;;;;;;;12.83;11.63;;;;;;;;;;4987660;28;20457;-63
2021/03/10 04:55:41;;;;;;;13.77;12.40;;;;;;;;;;4985789;28;20554;-64
2021/03/10 04:58:08;;;;;;;14.40;12.90;;;;;;;;;;4972855;28;20871;-64
2021/03/10 05:00:34;;;;;;;13.90;12.50;;;;;;;;;;4972553;28;20473;-65
2021/03/10 05:03:02;;;;;;;12.77;11.47;;;;;;;;;;4972674;28;20459;-65
2021/03/10 05:05:28;;;;;;;14.97;13.37;;;;;;;;;;4971275;28;20487;-64
2021/03/10 05:07:55;;;;;;;14.63;13.33;;;;;;;;;;4976695;28;21065;-64
2021/03/10 05:10:22;;;;;;;15.37;13.87;;;;;;;;;;4971853;28;20459;-64
2021/03/10 05:12:48;;;;;;;14.57;13.37;;;;;;;;;;4972175;28;20451;-64
2021/03/10 05:15:15;;;;;;;14.57;13.17;;;;;;;;;;4971882;28;20467;-64
2021/03/10 05:17:42;;;;;;;14.30;12.93;;;;;;;;;;4972419;28;20538;-63
2021/03/10 05:20:11;;;;;;;14.27;12.97;;;;;;;;;;4972488;28;20800;-64
2021/03/10 05:22:38;;;;;;;14.83;13.53;;;;;;;;;;4976224;28;20514;-63
2021/03/10 05:25:05;;;;;;;13.70;12.40;;;;;;;;;;4975903;28;20577;-64
2021/03/10 05:27:32;;;;;;;13.80;12.50;;;;;;;;;;4975251;28;20656;-65
2021/03/10 05:29:58;;;;;;;13.50;12.27;;;;;;;;;;4975235;28;20455;-64
2021/03/10 05:32:25;;;;;;;13.80;12.70;;;;;;;;;;4975949;28;20822;-64
2021/03/10 05:34:52;;;;;;;13.50;12.30;;;;;;;;;;4974339;28;21056;-64
2021/03/10 05:37:19;;;;;;;13.03;11.87;;;;;;;;;;4976615;28;20579;-64
2021/03/10 05:39:46;;;;;;;12.87;11.70;;;;;;;;;;4975100;28;20534;-63
2021/03/10 05:42:13;;;;;;;12.23;11.23;;;;;;;;;;4975320;28;21142;-64
2021/03/10 05:44:39;;;;;;;13.87;12.40;;;;;;;;;;4974885;28;21036;-65
2021/03/10 05:47:06;;;;;;;12.57;11.27;;;;;;;;;;4974824;28;21082;-64
2021/03/10 05:49:33;;;;;;;12.20;11.10;;;;;;;;;;4975456;28;20463;-64
2021/03/10 05:52:01;;;;;;;12.30;11.20;;;;;;;;;;4983432;28;20537;-65
2021/03/10 05:54:30;;;;;;;12.30;11.20;;;;;;;;;;4982520;28;20872;-64
2021/03/10 05:56:57;;;;;;;11.83;10.83;;;;;;;;;;4974996;28;20445;-64
2021/03/10 05:59:23;;;;;;;12.63;11.40;;;;;;;;;;4974842;28;21022;-64
2021/03/10 06:01:50;;;;;;;12.20;11.10;;;;;;;;;;4975330;28;20550;-65
2021/03/10 06:04:17;;;;;;;11.87;10.97;;;;;;;;;;4974820;28;20455;-63
2021/03/10 06:06:43;;;;;;;11.13;10.20;;;;;;;;;;4974655;28;20517;-64
2021/03/10 06:09:10;;;;;;;11.87;10.80;;;;;;;;;;4974912;28;21041;-64
2021/03/10 06:11:38;;;;;;;12.63;11.30;;;;;;;;;;4974941;28;20955;-64
2021/03/10 06:14:07;;;;;;;11.93;10.73;;;;;;;;;;4974340;28;20451;-64
2021/03/10 06:16:34;;;;;;;12.00;11.00;;;;;;;;;;4975023;28;20467;-64
2021/03/10 06:19:05;;;;;;;12.80;11.60;;;;;;;;;;4974525;28;20539;-63
2021/03/10 06:21:32;;;;;;;13.40;11.23;;;;;;;;;;4981893;28;20466;-62
2021/03/10 06:23:59;;;;;;;12.30;11.17;;;;;;;;;;4980924;28;20526;-62
2021/03/10 06:26:26;;;;;;;12.27;11.13;;;;;;;;;;4974701;28;20483;-62
2021/03/10 06:28:54;;;;;;;12.70;10.50;;;;;;;;;;4975142;28;20460;-62
2021/03/10 06:31:22;;;;;;;11.87;10.77;;;;;;;;;;4975025;28;20554;-62
2021/03/10 06:33:58;;;;;;;12.33;11.20;;;;;;;;;;4974404;28;20519;-62
2021/03/10 06:36:25;;;;;;;6.90;5.67;;;;;;;;;;4975873;28;20471;-63
2021/03/10 06:38:52;;;;;;;8.47;4.77;;;;;;;;;;4975013;28;20454;-63
2021/03/10 06:41:27;;;;;;;5.03;4.30;;;;;;;;;;4974192;28;20456;-62
2021/03/10 06:43:55;;;;;;;6.10;5.50;;;;;;;;;;4974613;28;20455;-62
2021/03/10 06:46:22;;;;;;;7.30;4.50;;;;;;;;;;4974218;28;20495;-67
2021/03/10 06:48:55;;;;;;;6.00;4.97;;;;;;;;;;4977441;28;20546;-62
2021/03/10 06:51:22;;;;;;;5.23;4.57;;;;;;;;;;4981606;28;20532;-63
2021/03/10 06:53:49;;;;;;;8.80;5.37;;;;;;;;;;4980141;28;20562;-62
2021/03/10 06:56:19;;;;;;;8.63;5.67;;;;;;;;;;4976346;28;20562;-63
2021/03/10 06:58:56;;;;;;;7.50;5.70;;;;;;;;;;4976922;28;20453;-62
2021/03/10 07:01:23;;;;;;;5.37;4.93;;;;;;;;;;4964255;28;20542;-62
2021/03/10 07:03:51;;;;;;;6.30;5.70;;;;;;;;;;4976107;28;20460;-61
2021/03/10 07:06:18;;;;;;;6.00;5.37;;;;;;;;;;4978574;28;20483;-61
2021/03/10 07:08:46;;;;;;;6.73;5.57;;;;;;;;;;4990367;28;20496;-62
2021/03/10 07:11:14;;;;;;;8.27;6.20;;;;;;;;;;4994259;28;20483;-61
2021/03/10 07:13:42;;;;;;;12.17;5.07;;;;;;;;;;4993849;28;20471;-61
2021/03/10 07:16:10;;;;;;;5.77;5.17;;;;;;;;;;4992852;28;20470;-61
2021/03/10 07:18:37;;;;;;;6.33;5.00;;;;;;;;;;4994869;28;20498;-62
2021/03/10 07:21:05;;;;;;;8.07;5.53;;;;;;;;;;4994725;28;20432;-61
2021/03/10 07:23:37;;;;;;;5.97;5.37;;;;;;;;;;4994398;28;20447;-61
2021/03/10 07:26:03;;;;;;;6.07;5.43;;;;;;;;;;4993591;28;20492;-62
2021/03/10 07:28:31;;;;;;;5.80;4.80;;;;;;;;;;4995436;28;20456;-61
2021/03/10 07:30:58;;;;;;;5.70;5.20;;;;;;;;;;4994808;28;20458;-61
2021/03/10 07:33:26;;;;;;;6.83;6.07;;;;;;;;;;4992459;28;20511;-63
2021/03/10 07:35:53;;;;;;;14.97;10.87;;;;;;;;;;5006256;23;20495;-62
2021/03/10 07:38:20;;;;;;;13.30;12.00;;;;;;;;;;4986536;28;20820;-67
2021/03/10 07:40:54;;;;;;;13.90;12.50;;;;;;;;;;4993715;28;20864;-64
2021/03/10 07:43:21;;;;;;;13.43;12.23;;;;;;;;;;4991674;28;20645;-65
2021/03/10 07:45:48;;;;;;;14.93;13.43;;;;;;;;;;4992203;28;20482;-64
2021/03/10 07:48:14;;;;;;;14.67;13.30;;;;;;;;;;4980502;28;20458;-65
2021/03/10 07:50:42;;;;;;;13.97;12.77;;;;;;;;;;4992905;28;20454;-65
2021/03/10 07:53:09;;;;;;;14.17;12.47;;;;;;;;;;4991323;28;20539;-65
2021/03/10 07:55:43;;;;;;;14.67;13.37;;;;;;;;;;4992504;28;20471;-65
2021/03/10 07:58:09;;;;;;;14.00;12.80;;;;;;;;;;4988715;28;20454;-64
2021/03/10 08:00:36;;;;;;;15.30;12.93;;;;;;;;;;4994060;28;20533;-65
2021/03/10 08:03:03;;;;;;;14.93;13.10;;;;;;;;;;5008569;28;20875;-65
2021/03/10 08:05:32;;;;;;;16.20;14.70;;;;;;;;;;4996929;28;20500;-65
2021/03/10 08:08:09;;;;;;;15.83;14.23;;;;;;;;;;4992690;28;20450;-65
2021/03/10 08:10:36;;;;;;;16.80;15.10;;;;;;;;;;4987678;28;20454;-64
2021/03/10 08:13:13;;;;;;;16.33;14.93;;;;;;;;;;4991905;28;20530;-65
2021/03/10 08:15:40;;;;;;;15.63;14.03;;;;;;;;;;5001706;28;20556;-64
2021/03/10 08:18:07;;;;;;;15.33;13.97;;;;;;;;;;5012360;28;20437;-65
2021/03/10 08:20:35;;;;;;;16.57;14.90;;;;;;;;;;4978104;28;20451;-67
2021/03/10 08:23:02;;;;;;;16.37;14.87;;;;;;;;;;4973323;28;20542;-67
2021/03/10 08:25:30;;;;;;;16.53;15.00;;;;;;;;;;4973089;28;20533;-66
2021/03/10 08:27:57;;;;;;;15.57;14.07;;;;;;;;;;4973034;28;20825;-68
2021/03/10 08:30:24;;;;;;;16.40;14.80;;;;;;;;;;4990173;28;20454;-66
2021/03/10 08:32:51;;;;;;;17.10;15.60;;;;;;;;;;5012126;28;20963;-66
2021/03/10 08:35:19;;;;;;;15.83;14.37;;;;;;;;;;4984224;28;20443;-69
2021/03/10 08:37:52;;;;;;;17.50;14.73;;;;;;;;;;4973010;28;20446;-69
2021/03/10 08:40:20;;;;;;;16.77;15.17;;;;;;;;;;4973357;28;20455;-69
2021/03/10 08:42:47;;;;;;;16.40;14.90;;;;;;;;;;4973388;28;20542;-68
2021/03/10 08:45:20;;;;;;;16.70;15.00;;;;;;;;;;4979437;28;20537;-67
2021/03/10 08:47:55;;;;;;;18.30;16.70;;;;;;;;;;4992039;28;20533;-65
2021/03/10 08:50:26;;;;;;;17.43;15.63;;;;;;;;;;4990287;28;20988;-63
2021/03/10 08:52:53;;;;;;;17.43;15.83;;;;;;;;;;4989931;28;20997;-67
2021/03/10 08:55:23;;;;;;;20.07;18.23;;;;;;;;;;4981631;28;21007;-66
2021/03/10 08:57:51;;;;;;;19.87;17.97;;;;;;;;;;5011139;28;21356;-63
2021/03/10 09:00:21;;;;;;;23.23;17.33;;;;;;;;;;4976510;28;20470;-66
2021/03/10 09:02:49;;;;;;;19.50;17.47;;;;;;;;;;4976562;28;20482;-66
2021/03/10 09:05:16;;;;;;;18.23;16.40;;;;;;;;;;4976252;28;20460;-66
2021/03/10 09:07:43;;;;;;;19.23;17.43;;;;;;;;;;4976699;28;20475;-66
2021/03/10 09:10:11;;;;;;;21.33;19.33;;;;;;;;;;4993255;28;20462;-66
2021/03/10 09:12:40;;;;;;;22.63;20.43;;;;;;;;;;5011853;28;20528;-65
2021/03/10 09:15:11;;;;;;;21.73;19.70;;;;;;;;;;4983167;28;20459;-66
2021/03/10 09:17:38;;;;;;;20.70;18.80;;;;;;;;;;4975479;28;20538;-63
2021/03/10 09:20:05;;;;;;;26.07;18.50;;;;;;;;;;4990935;28;20465;-65
2021/03/10 09:22:32;;;;;;;21.63;19.57;;;;;;;;;;4995227;28;20446;-64
2021/03/10 09:24:59;;;;;;;22.53;20.33;;;;;;;;;;4995842;28;21037;-67
2021/03/10 09:27:27;;;;;;;22.37;20.23;;;;;;;;;;4995304;28;20473;-64
2021/03/10 09:29:55;;;;;;;24.63;21.40;;;;;;;;;;4999626;28;20454;-64
2021/03/10 09:32:23;;;;;;;22.73;19.57;;;;;;;;;;5014590;28;20552;-64
2021/03/10 09:34:50;;;;;;;23.47;21.20;;;;;;;;;;4991418;28;20981;-65
2021/03/10 09:37:17;;;;;;;22.87;20.70;;;;;;;;;;4994624;28;20482;-63
2021/03/10 09:39:48;;;;;;;21.60;19.33;;;;;;;;;;4983714;28;21005;-63
2021/03/10 09:42:15;;;;;;;22.30;20.30;;;;;;;;;;4976443;28;20518;-64
2021/03/10 09:44:45;;;;;;;23.30;21.00;;;;;;;;;;4975482;28;20449;-63
2021/03/10 09:47:15;;;;;;;22.90;20.60;;;;;;;;;;5001967;28;20512;-64
2021/03/10 09:49:47;;;;;;;22.90;20.70;;;;;;;;;;4994897;28;20458;-64
2021/03/10 09:52:13;;;;;;;21.33;19.10;;;;;;;;;;4991167;28;20473;-64
2021/03/10 09:54:50;;;;;;;23.50;21.10;;;;;;;;;;4993774;28;20458;-64
2021/03/10 09:57:20;;;;;;;23.10;20.70;;;;;;;;;;4993749;28;21010;-63
2021/03/10 09:59:47;;;;;;;22.00;19.83;;;;;;;;;;4994516;28;20462;-64
2021/03/10 10:02:15;;;;;;;22.97;20.87;;;;;;;;;;4989014;28;20462;-63
2021/03/10 10:04:42;;;;;;;24.37;21.97;;;;;;;;;;4987543;28;20455;-64
2021/03/10 10:07:12;;;;;;;25.83;23.43;;;;;;;;;;4993614;28;20490;-63
2021/03/10 10:09:38;;;;;;;25.03;22.33;;;;;;;;;;4985264;28;20977;-64
2021/03/10 10:12:06;;;;;;;24.97;22.67;;;;;;;;;;4981562;28;20446;-63
2021/03/10 10:14:32;;;;;;;25.60;23.10;;;;;;;;;;4993863;28;20450;-63
2021/03/10 10:16:59;;;;;;;25.17;22.77;;;;;;;;;;4992779;28;20462;-63
2021/03/10 10:19:26;;;;;;;25.90;23.37;;;;;;;;;;4993538;28;20529;-63
2021/03/10 10:21:52;;;;;;;26.47;24.10;;;;;;;;;;4994412;28;20447;-64
2021/03/10 10:24:20;;;;;;;27.03;24.23;;;;;;;;;;4993123;28;20601;-63
2021/03/10 10:26:47;;;;;;;27.13;24.43;;;;;;;;;;4986977;28;20487;-63
2021/03/10 10:29:14;;;;;;;28.30;25.60;;;;;;;;;;4991009;28;20795;-63
2021/03/10 10:31:41;;;;;;;26.33;23.77;;;;;;;;;;4997266;28;20447;-63
2021/03/10 10:34:08;;;;;;;28.17;25.37;;;;;;;;;;4993798;28;20505;-64
2021/03/10 10:36:34;;;;;;;28.60;25.70;;;;;;;;;;4983416;28;20476;-63
2021/03/10 10:39:01;;;;;;;29.67;26.67;;;;;;;;;;4982115;28;20478;-65
2021/03/10 10:41:29;;;;;;;31.47;28.47;;;;;;;;;;4989163;28;20454;-64
2021/03/10 10:43:55;;;;;;;30.17;27.13;;;;;;;;;;4975274;28;20452;-65
2021/03/10 10:46:22;;;;;;;32.07;28.70;;;;;;;;;;4973875;28;21002;-65
2021/03/10 10:48:48;;;;;;;33.10;29.53;;;;;;;;;;4985945;28;20458;-65
2021/03/10 10:51:16;;;;;;;32.27;28.97;;;;;;;;;;4981974;28;20466;-65
2021/03/10 10:53:43;;;;;;;32.63;29.33;;;;;;;;;;4984481;28;20462;-64
2021/03/10 10:56:10;;;;;;;33.57;30.10;;;;;;;;;;4983333;28;20525;-64
2021/03/10 10:58:37;;;;;;;35.30;31.57;;;;;;;;;;4982833;28;20458;-65
2021/03/10 11:01:04;;;;;;;35.00;31.40;;;;;;;;;;4980006;28;20578;-64
2021/03/10 11:03:31;;;;;;;36.63;32.73;;;;;;;;;;4985600;28;21148;-64
2021/03/10 11:05:57;;;;;;;36.40;32.50;;;;;;;;;;5000070;28;20572;-65
2021/03/10 11:08:25;;;;;;;34.70;30.80;;;;;;;;;;4992894;28;20463;-65
2021/03/10 11:10:51;;;;;;;34.97;31.53;;;;;;;;;;4992968;28;20454;-65
2021/03/10 11:13:18;;;;;;;36.87;29.10;;;;;;;;;;4992752;28;20461;-64
2021/03/10 11:15:46;;;;;;;31.63;28.27;;;;;;;;;;4977550;28;20471;-64
2021/03/10 11:18:12;;;;;;;34.77;31.17;;;;;;;;;;4986589;28;20541;-65
2021/03/10 11:20:39;;;;;;;33.80;30.30;;;;;;;;;;4992371;28;20490;-65
2021/03/10 11:23:05;;;;;;;35.53;31.73;;;;;;;;;;4990218;28;20498;-65
2021/03/10 11:25:32;;;;;;;34.23;30.20;;;;;;;;;;4995289;28;20470;-65
2021/03/10 11:27:59;;;;;;;34.30;30.23;;;;;;;;;;4992081;28;20554;-65
2021/03/10 11:30:26;;;;;;;29.80;26.80;;;;;;;;;;4993154;28;20585;-65
2021/03/10 11:32:53;;;;;;;31.90;28.60;;;;;;;;;;4990441;28;20452;-64
2021/03/10 11:35:22;;;;;;;31.37;27.90;;;;;;;;;;4991843;28;21010;-65
2021/03/10 11:37:48;;;;;;;34.43;30.83;;;;;;;;;;4980708;28;20443;-64
2021/03/10 11:40:15;;;;;;;33.60;30.23;;;;;;;;;;5009718;28;20442;-65
2021/03/10 11:42:42;;;;;;;34.20;30.70;;;;;;;;;;4987223;28;20534;-65
2021/03/10 11:45:10;;;;;;;32.80;29.50;;;;;;;;;;4993674;28;20521;-65
2021/03/10 11:47:36;;;;;;;32.83;29.60;;;;;;;;;;4982985;28;20487;-65
2021/03/10 11:50:04;;;;;;;30.90;27.90;;;;;;;;;;4974016;28;20452;-64
2021/03/10 11:52:31;;;;;;;28.50;23.77;;;;;;;;;;4991501;28;20450;-65
2021/03/10 11:54:58;;;;;;;30.17;27.13;;;;;;;;;;4990111;28;20454;-64
2021/03/10 11:57:24;;;;;;;30.13;27.03;;;;;;;;;;4987178;28;20493;-65
2021/03/10 11:59:51;;;;;;;28.80;26.00;;;;;;;;;;4996733;28;20455;-65
2021/03/10 12:02:17;;;;;;;27.97;25.10;;;;;;;;;;4990456;28;20492;-65
2021/03/10 12:04:44;;;;;;;27.30;24.60;;;;;;;;;;4991438;28;20454;-65
2021/03/10 12:07:12;;;;;;;26.50;24.07;;;;;;;;;;4990420;28;20565;-65
2021/03/10 12:09:38;;;;;;;26.73;24.23;;;;;;;;;;4991834;28;20651;-65
2021/03/10 12:12:06;;;;;;;26.93;24.37;;;;;;;;;;4992521;28;20458;-64
2021/03/10 12:14:32;;;;;;;24.60;22.30;;;;;;;;;;4976721;28;20886;-65
2021/03/10 12:16:59;;;;;;;26.80;24.27;;;;;;;;;;4983817;28;20948;-65
2021/03/10 12:19:26;;;;;;;26.53;24.13;;;;;;;;;;4988522;28;21163;-64
2021/03/10 12:21:52;;;;;;;25.20;22.93;;;;;;;;;;5000044;28;20877;-64
2021/03/10 12:24:20;;;;;;;24.47;22.17;;;;;;;;;;4991357;28;20469;-65
2021/03/10 12:26:46;;;;;;;23.90;21.80;;;;;;;;;;4990907;28;20874;-64
2021/03/10 12:29:13;;;;;;;22.13;20.23;;;;;;;;;;4993631;28;21034;-65
2021/03/10 12:31:40;;;;;;;23.30;21.07;;;;;;;;;;4996312;28;20549;-64
2021/03/10 12:34:06;;;;;;;22.73;20.60;;;;;;;;;;4996422;28;20465;-64
2021/03/10 12:36:33;;;;;;;20.53;18.73;;;;;;;;;;4994957;28;20471;-65
2021/03/10 12:39:00;;;;;;;22.10;20.00;;;;;;;;;;4993065;28;20534;-64
2021/03/10 12:41:27;;;;;;;19.93;18.10;;;;;;;;;;4988282;28;20452;-65
2021/03/10 12:43:54;;;;;;;22.13;19.93;;;;;;;;;;4990928;28;20461;-65
2021/03/10 12:46:20;;;;;;;18.87;16.90;;;;;;;;;;4994998;28;20923;-66
2021/03/10 12:48:47;;;;;;;21.10;19.20;;;;;;;;;;4996195;28;20454;-65
2021/03/10 12:51:14;;;;;;;20.47;18.47;;;;;;;;;;4989238;28;20486;-65
2021/03/10 12:53:40;;;;;;;20.77;18.90;;;;;;;;;;4995759;28;20897;-63
2021/03/10 12:56:07;;;;;;;18.90;17.10;;;;;;;;;;4983753;28;20899;-64
2021/03/10 12:58:34;;;;;;;19.83;18.03;;;;;;;;;;4995612;28;20541;-64
2021/03/10 13:01:01;;;;;;;20.57;18.70;;;;;;;;;;5006658;28;20453;-64
2021/03/10 13:03:28;;;;;;;20.23;18.43;;;;;;;;;;5015275;28;20449;-64
2021/03/10 13:05:54;;;;;;;20.57;18.57;;;;;;;;;;5014794;28;20485;-64
2021/03/10 13:08:21;;;;;;;21.90;20.00;;;;;;;;;;5004784;28;20454;-65
2021/03/10 13:10:48;;;;;;;21.20;19.30;;;;;;;;;;4995601;28;20511;-65
2021/03/10 13:13:14;;;;;;;20.23;18.33;;;;;;;;;;4995614;28;20454;-64
2021/03/10 13:15:42;;;;;;;20.93;18.93;;;;;;;;;;4995329;28;20474;-64
2021/03/10 13:18:08;;;;;;;21.37;19.37;;;;;;;;;;4995279;28;20893;-64
2021/03/10 13:20:35;;;;;;;21.87;19.83;;;;;;;;;;4995644;28;20533;-64
2021/03/10 13:23:02;;;;;;;20.57;18.67;;;;;;;;;;5002990;28;20817;-64
2021/03/10 13:25:29;;;;;;;20.17;18.27;;;;;;;;;;4994861;28;20839;-65
2021/03/10 13:27:55;;;;;;;20.70;18.80;;;;;;;;;;4997385;28;20455;-64
2021/03/10 13:30:22;;;;;;;21.67;19.77;;;;;;;;;;4995311;28;20557;-64
2021/03/10 13:32:49;;;;;;;19.17;17.47;;;;;;;;;;4995430;28;20454;-64
2021/03/10 13:35:16;;;;;;;19.97;18.17;;;;;;;;;;4994726;28;20535;-64
2021/03/10 13:37:43;;;;;;;20.27;18.47;;;;;;;;;;4997554;23;20497;-61
2021/03/10 13:40:10;;;;;;;21.10;19.20;;;;;;;;;;4974810;28;20462;-62
2021/03/10 13:42:36;;;;;;;21.80;19.87;;;;;;;;;;4974516;28;20454;-62
2021/03/10 13:45:03;;;;;;;20.10;18.37;;;;;;;;;;4975640;28;20450;-61
2021/03/10 13:47:30;;;;;;;21.30;19.23;;;;;;;;;;4978110;28;20577;-61
2021/03/10 13:49:57;;;;;;;19.97;18.17;;;;;;;;;;4979544;28;20541;-62
2021/03/10 13:52:24;;;;;;;22.10;19.90;;;;;;;;;;4974956;28;20939;-62
2021/03/10 13:54:53;;;;;;;21.07;19.17;;;;;;;;;;4975127;28;20951;-62
2021/03/10 13:57:20;;;;;;;20.07;18.20;;;;;;;;;;4975293;28;20545;-61
2021/03/10 13:59:46;;;;;;;21.00;18.83;;;;;;;;;;4975385;28;20451;-62
2021/03/10 14:02:13;;;;;;;21.37;19.47;;;;;;;;;;4975025;28;20870;-61
2021/03/10 14:04:39;;;;;;;19.93;18.07;;;;;;;;;;4975155;28;20452;-61
2021/03/10 14:07:07;;;;;;;20.70;18.80;;;;;;;;;;4974415;28;20868;-61
2021/03/10 14:09:34;;;;;;;22.47;20.27;;;;;;;;;;4974883;28;20545;-61
2021/03/10 14:12:00;;;;;;;20.33;18.53;;;;;;;;;;4974919;28;20846;-61
2021/03/10 14:14:27;;;;;;;20.00;18.00;;;;;;;;;;4976147;28;20455;-61
2021/03/10 14:16:53;;;;;;;20.83;19.03;;;;;;;;;;4974844;28;20475;-61
2021/03/10 14:19:20;;;;;;;22.57;20.43;;;;;;;;;;4975029;28;20463;-61